• Join FlightAware (Why Join?)
  • Login
  • US Flag 
08:28AM EDT


 

Airport Tracker/Info


-or-


 

Live Flight TrackerFlight Track Log ✈ PDT4142 ✈ 24-Oct-2013 ✈ KITH - KPHL

Flight Track Log - Related Links

Times and Time Zones

All times are in EDT time to prevent confusion due to time zone crossing. See the PDT4142 flight status page for this flight to view local times or setup timezone preferences in your user account.

Time Position Orientation Groundspeed Altitude Reporting Facility
EDT Latitude Longitude Course Direction KTS MPH feet Rate Location/Type
03:25PM 42.3280 -76.3796 143° Southeast  Level Estimated
03:25PM 42.5050 -76.5078 142° Southeast 138 159 5,400  Level New York Center
03:26PM 42.2876 -76.3236 134° Southeast  Level FlightAware Approximate
03:26PM 42.4672 -76.4708 144° Southeast 132 152 6,400  Level New York Center
03:27PM 42.2330 -76.2982 158° South  Level Estimated
03:27PM 42.4275 -76.4308 143° Southeast 151 174 7,600  Level New York Center
03:28PM 42.1876 -76.2497 142° Southeast  Level FlightAware Approximate
03:28PM 42.3900 -76.3883 140° Southeast 170 196 8,500  Level New York Center
03:29PM 42.1423 -76.2013 142° Southeast  Level FlightAware Approximate
03:29PM 42.3483 -76.3456 143° Southeast 177 204 9,000  Level New York Center
03:30PM 42.3008 -76.2967 143° Southeast 200 230 9,000  Level New York Center
03:31PM 42.2511 -76.2419 141° Southeast 219 252 9,000 420 Level New York Center
03:32PM 42.2039 -76.1850 138° Southeast 225 259 9,900 900 Climbing New York Center
03:33PM 42.1622 -76.1394 141° Southeast 210 242 10,900 540 Climbing New York Center
03:34PM 42.1094 -76.1100 158° South 205 236 11,000  Climbing New York Center
03:35PM 42.0439 -76.0825 163° South 219 252 11,000  Level New York Center
03:36PM 41.9808 -76.0494 159° South 244 281 11,000  Level New York Center
03:37PM 41.9236 -76.0253 163° South 244 281 11,000  Level New York Center
03:38PM 41.8606 -75.9953 160° South 244 281 11,000 -60 Level New York Center
03:39PM 41.7936 -75.9511 154° Southeast 244 281 10,900  Descending New York Center
03:40PM 41.7286 -75.9128 156° South 250 288 11,000  Climbing New York Center
03:41PM 41.6736 -75.8861 160° South 244 281 11,000  Level New York Center
03:42PM 41.6103 -75.8592 162° South 244 281 11,000  Level New York Center
03:43PM 41.5389 -75.8233 159° South 244 281 11,000 -960 Level New York Center
03:44PM 41.4822 -75.7858 154° Southeast 244 281 9,100 -1,500 Descending New York Center
03:45PM 41.4147 -75.7586 163° South 244 281 8,100 -600 Descending New York Center
03:46PM 41.3533 -75.7292 160° South 244 281 8,000 -60 Descending New York Center
03:47PM 41.2942 -75.7028 161° South 244 281 8,000  Level New York Center
03:48PM 41.2306 -75.6761 163° South 237 273 8,000 -300 Level New York Center
03:50PM 41.1349 -75.6306 160° South  Level FlightAware Approximate
03:57PM 40.7333 -75.4566 163° South  Level FlightAware Approximate
03:58PM 40.6736 -75.4500 180° South  Level FlightAware Approximate
03:59PM 40.6175 -75.4667 180° South  Level FlightAware Approximate
03:59PM 40.5500 -75.4833 194° South 204 235 5,000  Level Philadelphia TRACON
04:00PM 40.5617 -75.4877 189° South  Level FlightAware Approximate
04:01PM 40.5020 -75.4996 189° South  Level FlightAware Approximate
04:01PM 40.4500 -75.5167 194° South 215 247 5,000  Level Philadelphia TRACON
04:02PM 40.4423 -75.5115 189° South  Level FlightAware Approximate
04:02PM 40.4000 -75.4833 153° Southeast 232 267 5,000  Level Philadelphia TRACON
04:03PM 40.3823 -75.5167 180° South  Level FlightAware Approximate
04:03PM 40.3500 -75.4500 153° Southeast 226 260 5,000  Level Philadelphia TRACON
04:04PM 40.3228 -75.5258 194° South  Level FlightAware Approximate
04:04PM 40.2833 -75.4167 159° South 226 260 5,000  Level Philadelphia TRACON
04:05PM 40.2333 -75.3667 143° Southeast 228 262 5,000 -180 Level Philadelphia TRACON
04:06PM 40.1833 -75.3333 153° Southeast 241 277 4,700 -480 Descending Philadelphia TRACON
04:07PM 40.1167 -75.2833 150° Southeast 239 275 4,100 -360 Descending Philadelphia TRACON
04:08PM 40.0667 -75.2333 143° Southeast 229 264 4,000 -60 Descending Philadelphia TRACON
04:09PM 40.0167 -75.2000 153° Southeast 216 249 4,000  Level Philadelphia TRACON
04:10PM 39.9500 -75.1667 159° South 218 251 4,000  Level Philadelphia TRACON
04:11PM 39.9000 -75.1333 153° Southeast 219 252 4,000 -360 Level Philadelphia TRACON
04:12PM 39.8333 -75.1167 169° South 209 241 3,300 -840 Descending Philadelphia TRACON
04:13PM 39.8000 -75.1333 201° Southwest 169 194 2,300 -780 Descending Philadelphia TRACON
04:14PM 39.8000 -75.2000 270° West 150 173 1,800 -660 Descending Philadelphia TRACON
04:15PM 39.8333 -75.2000 360° North 136 157 1,000 -840 Descending Philadelphia TRACON
04:16PM 39.8500 -75.2167 322° Northwest 101 116 300 -780 Descending Philadelphia TRACON